DW8209 Gubbio IT current weather conditions

sailwx.info

Wind from 193

Air temperature 1.7° C
Dewpoint 1.2° C

Last reported at 2014-Oct-23 01:49 UTC.
Time now 2014-Oct-23 02:34 UTC

Location: N 43°19' E 012°34'.
View on Google Maps.

See reports from other nearby stations

  
Tides and Currents Weather Stations Pressure Air Temp Water Temp Dewpoint Dewpoint Depression Visibility Wind Speed Wind Dir Waves Ship Positions
date/time (UTC)wind fromknots sea level pressurealtimeterstation pressurevisibilityair tempwater tempwave heightnotes
2014-Oct-23 01:49 193 1.7
2014-Oct-23 01:34 193 1.1
2014-Oct-23 01:19 193 1.1
2014-Oct-23 01:04 192 1.1
2014-Oct-23 00:49 194 1.7
2014-Oct-23 00:34 019 0 gusting 1 1.1
2014-Oct-23 00:19 219 1.1
2014-Oct-23 00:04 219 1.1
2014-Oct-22 23:49 158 1.1
2014-Oct-22 23:34 158 1.1
2014-Oct-22 23:19 276 1.1
2014-Oct-22 23:04 294 1.1
2014-Oct-22 22:49 277 1.1
2014-Oct-22 22:34 276 1.1
2014-Oct-22 22:19 288 1.7
2014-Oct-22 22:04 238 1.7
2014-Oct-22 21:49 238 1.7
2014-Oct-22 21:34 013 2.2
2014-Oct-22 21:19 013 2.2
2014-Oct-22 21:04 232 2.2
2014-Oct-22 20:49 237 2.2
2014-Oct-22 20:33 298 2.2
2014-Oct-22 20:18 280 2.8
2014-Oct-22 20:03 278 2.8
2014-Oct-22 19:48 278 2.8
2014-Oct-22 19:33 278 3.3
2014-Oct-22 19:18 117 3.3
2014-Oct-22 19:03 217 3.9
2014-Oct-22 18:48 077 0 gusting 1 4.4
2014-Oct-22 18:33 141 3.9
2014-Oct-22 18:18 172 4.4
2014-Oct-22 18:03 214 5.0
2014-Oct-22 17:48 284 0 gusting 3 5.0
2014-Oct-22 17:33 160 5.6
2014-Oct-22 17:18 162 6.1
2014-Oct-22 17:03 084 7.2
2014-Oct-22 16:48 082 1 gusting 3 7.2
2014-Oct-22 16:33 194 7.8
2014-Oct-22 16:17 258 0 gusting 2 8.3
2014-Oct-22 16:02 249 1 gusting 2 8.9
2014-Oct-22 15:47 335 2 gusting 6 9.4
2014-Oct-22 15:32 057 5 gusting 10 9.4
2014-Oct-22 15:17 306 5 gusting 10 9.4
2014-Oct-22 15:02 349 9.4
2014-Oct-22 14:47 039 6 gusting 13 9.4
2014-Oct-22 14:32 044 14 gusting 18 10.6
2014-Oct-22 14:17 076 9 gusting 14 11.7
2014-Oct-22 14:02 049 7 gusting 13 11.7
2014-Oct-22 13:47 044 10 gusting 14 12.2
2014-Oct-22 13:32 050 5 gusting 7 12.8
2014-Oct-22 13:17 050 7 gusting 10 12.8
2014-Oct-22 13:02 032 6 gusting 10 12.8
2014-Oct-22 12:47 020 6 gusting 9 13.3
2014-Oct-22 12:32 018 10 gusting 15 12.8
2014-Oct-22 12:17 336 10 gusting 15 12.8
2014-Oct-22 12:02 026 9 gusting 17 12.8
2014-Oct-22 11:46 027 7 gusting 19 12.2
2014-Oct-22 11:31 359 9 gusting 19 11.7
2014-Oct-22 11:16 019 13 gusting 19 11.7
2014-Oct-22 11:01 032 12 gusting 15 12.8
2014-Oct-22 10:46 340 6 gusting 14 13.9
2014-Oct-22 10:31 312 6 gusting 12 14.4
2014-Oct-22 10:16 312 5 gusting 13 14.4
2014-Oct-22 10:01 024 7 gusting 13 13.9
2014-Oct-22 09:46 011 8 gusting 16 13.9
2014-Oct-22 09:31 309 8 gusting 13 13.9
2014-Oct-22 09:16 043 3 gusting 12 13.9
2014-Oct-22 09:01 321 4 gusting 13 13.9
2014-Oct-22 08:46 342 3 gusting 12 14.4
2014-Oct-22 08:31 320 5 gusting 12 13.9
2014-Oct-22 08:16 302 6 gusting 14 14.4
2014-Oct-22 08:00 022 1 gusting 7 14.4
2014-Oct-22 07:45 322 2 gusting 5 13.9
2014-Oct-22 07:30 319 0 gusting 3 13.3
2014-Oct-22 07:15 044 1 gusting 7 12.8
2014-Oct-22 07:00 346 0 gusting 4 12.8
2014-Oct-22 06:45 288 2 gusting 7 12.8
2014-Oct-22 06:30 300 4
2014-Oct-22 06:15
2014-Oct-22 06:00
2014-Oct-22 05:46
2014-Oct-22 05:35
2014-Oct-22 05:24
2014-Oct-22 05:09
2014-Oct-22 04:54
2014-Oct-22 04:39
2014-Oct-22 04:24
2014-Oct-22 04:09
2014-Oct-22 03:54
2014-Oct-22 03:39
2014-Oct-22 03:24
2014-Oct-22 03:08
2014-Oct-22 02:53
2014-Oct-22 02:38
2014-Oct-22 02:23
2014-Oct-22 02:08
2014-Oct-22 01:53
2014-Oct-22 01:38 238 2 gusting 7 17.2
2014-Oct-22 01:23 150 1 gusting 8 17.8
2014-Oct-22 01:08 224 2 gusting 8 17.8
2014-Oct-22 00:53 212 5 gusting 11 17.8
2014-Oct-22 00:38 217 4 gusting 15 17.8
2014-Oct-22 00:23 215 3 gusting 7 17.8
2014-Oct-22 00:08 225 3 gusting 8 17.8
2014-Oct-21 23:53 224 6 gusting 9 17.8
2014-Oct-21 23:38 217 5 gusting 15 17.8
2014-Oct-21 23:23 195 6 gusting 16 17.8
2014-Oct-21 23:08 212 6 gusting 13 17.8
2014-Oct-21 22:53 208 6 gusting 11 17.8
2014-Oct-21 22:38 121 2 gusting 7 17.8
2014-Oct-21 22:23 204 2 gusting 7 17.8
2014-Oct-21 22:08 191 2 gusting 10 17.8
2014-Oct-21 21:52 228 1 gusting 5 17.8
2014-Oct-21 21:37 212 3 gusting 5 17.8
2014-Oct-21 21:22 208 1 gusting 6 17.8
2014-Oct-21 21:08 201 1 gusting 13 17.8
2014-Oct-21 20:52 207 2 gusting 7 17.8
2014-Oct-21 20:37 238 8 gusting 12 18.3
2014-Oct-21 20:22 207 3 gusting 6 18.3
2014-Oct-21 20:07 184 3 gusting 10 18.3
2014-Oct-21 19:52 207 2 gusting 12 18.3
2014-Oct-21 19:37 138 2 gusting 10 18.3
2014-Oct-21 19:22 170 3 gusting 9 18.3
2014-Oct-21 18:52 223 2 gusting 8 18.3
2014-Oct-21 18:37 232 4 gusting 11 18.3
2014-Oct-21 18:22 166 0 gusting 6 18.3
2014-Oct-21 18:07 156 0 gusting 7 18.9
2014-Oct-21 17:52 219 4 gusting 7 18.9
2014-Oct-21 17:37 179 4 gusting 11 18.9
2014-Oct-21 17:22 178 2 gusting 6 18.9
2014-Oct-21 17:07 177 18.9
2014-Oct-21 16:52 132 18.9
2014-Oct-21 16:37 188 0 gusting 2 18.9
2014-Oct-21 16:22 166 18.9
2014-Oct-21 16:07 203 18.9
2014-Oct-21 15:52 110 0 gusting 1 18.9
2014-Oct-21 15:37 115 19.4
2014-Oct-21 15:22 128 19.4
2014-Oct-21 15:07 129 20.0
2014-Oct-21 14:52 156 20.0
2014-Oct-21 14:37 174 19.4
2014-Oct-21 14:22 129 1 gusting 3 19.4
2014-Oct-21 14:07 107 1 gusting 2 19.4
2014-Oct-21 13:51 115 0 gusting 2 18.9
2014-Oct-21 13:36 134 18.9
2014-Oct-21 13:21 132 18.9
2014-Oct-21 13:06 141 18.9
2014-Oct-21 12:51 153 18.9
2014-Oct-21 12:36 170 0 gusting 6 18.9
2014-Oct-21 12:21 222 0 gusting 3 18.9
2014-Oct-21 12:06 108 0 gusting 4 18.9
2014-Oct-21 11:51 155 18.9
2014-Oct-21 11:36 204 18.3
2014-Oct-21 11:21 146 18.3
2014-Oct-21 11:06 115 18.3
2014-Oct-21 10:51 125 18.3
2014-Oct-21 10:36 148 17.8
2014-Oct-21 10:21 207 17.8
2014-Oct-21 10:06 108 0 gusting 2 17.2
2014-Oct-21 09:51 116 17.2
2014-Oct-21 09:36 118 1 gusting 3 17.2
2014-Oct-21 09:21 120 0 gusting 3 16.7
2014-Oct-21 09:06 119 1 gusting 4 16.7
2014-Oct-21 08:51 125 0 gusting 2 16.7
2014-Oct-21 08:36 125 16.1
2014-Oct-21 08:21 163 1 gusting 5 16.1
2014-Oct-21 08:06 135 1 gusting 5 16.1
2014-Oct-21 07:51 128 4 gusting 6 16.1
2014-Oct-21 07:36 134 2 gusting 5 15.6
2014-Oct-21 07:21 132 3 gusting 6 15.6
2014-Oct-21 07:06 145 0 gusting 2 15.6
2014-Oct-21 06:51 143 15.6
2014-Oct-21 06:36 143 0 gusting 1 15.6
2014-Oct-21 06:21 148 0 gusting 3 15.6
2014-Oct-21 06:06
2014-Oct-21 05:50
2014-Oct-21 05:35
2014-Oct-21 05:20
2014-Oct-21 05:05
2014-Oct-21 04:50
2014-Oct-21 04:35
2014-Oct-21 04:20
2014-Oct-21 04:05
2014-Oct-21 03:50
2014-Oct-21 03:35
2014-Oct-21 03:20
2014-Oct-21 03:05
2014-Oct-21 02:50
2014-Oct-21 02:34
2014-Oct-21 02:19
2014-Oct-21 02:04